KTTN/TTN METAR and TAF weather

Enter ICAO airport designator
Station Type Date Time Source
KTTN METAR 2021/05/14 03:53 UTC NOAA

KTTN 140353Z AUTO 22004KT 10SM CLR 12/02 A3021 RMK AO2 SLP224 T01220017


Station Type Date Time Source
KTTN Decoded METAR 2021/05/14 03:53 UTC NOAA

TRENTON MERCER COUNTY AIRPORT , NJ, United States (KTTN) 40-17N 074-49W 59M
May 13, 2021 - 11:53 PM EDT / 2021.05.14 0353 UTC
Wind: from the SW (220 degrees) at 5 MPH (4 KT):0
Visibility: 10 mile(s):0
Sky conditions: clear
Temperature: 54.0 F (12.2 C)
Dew Point: 35.1 F (1.7 C)
Relative Humidity: 48%
Pressure (altimeter): 30.21 in. Hg (1023 hPa)
ob: KTTN 140353Z AUTO 22004KT 10SM CLR 12/02 A3021 RMK AO2 SLP224 T01220017
cycle: 4

Station Type Date Time Source
KTTN TAF 2021/05/14 04:15 UTC NOAA

TAF
AMD KTTN 140412Z 1404/1424 VRB03KT P6SM SKC
FM141400 36005KT P6SM SKC
FM141600 30007KT P6SM SCT200

Example: see airport list